Terminal Aerodrome Forecast
Issued by NWS Mt. Holly, NJ

Home | Current Version | Previous Version | Text Only | Print | Product List | Glossary On
Versions: 1 2 3 4 5 6 7 8 9 10 11 12 13 14 15 16 17 18 19 20 21 22 23 24 25 26
570
FTUS41 KPHI 211741
TAFABE
TAF
KABE 211741Z 2118/2218 26009G15KT P6SM SCT090
     FM212000 24007G14KT 6SM -SHRA BR BKN060
     FM220200 36011KT 5SM -SHRA BR OVC040
     FM220300 36010KT P6SM BKN035 PROB30 2203/2208 5SM -RA
     FM220800 03008KT P6SM OVC040 PROB30 2208/2211 5SM -RA
     FM221100 04009KT 5SM -RA OVC035
     FM221200 04009G14KT 4SM RA OVC030=

USA.gov is the U.S. government's official web portal to all federal, state and local government web resources and services.